This is the latest recevied weather packets stored in our database for station/object PY2FGD-15. If no packets are shown the sender has not sent any weather packets the latest 10 day(s).
| Time | Temp. | Humidity | Pressure | Rain* | Wind** | Luminosity | Snow |
|---|---|---|---|---|---|---|---|
| 1777780204 | 21.11° C | 70% | 1018 hPa | 2.54 mm | - | - | - |
| 1777779003 | 22.22° C | 70% | 1018 hPa | 2.54 mm | - | - | - |
| 1777778403 | 22.22° C | 70% | 1018 hPa | 2.54 mm | - | - | - |
| 1777777804 | 22.22° C | 69% | 1017 hPa | 2.54 mm | - | - | - |
| 1777777207 | 22.22° C | 69% | 1017 hPa | 2.54 mm | - | - | - |
| 1777776004 | 22.22° C | 69% | 1017 hPa | 2.54 mm | - | - | - |
| 1777771803 | 22.78° C | 70% | 1018 hPa | 2.54 mm | - | - | - |
| 1777771204 | 22.78° C | 70% | 1018 hPa | 2.54 mm | - | - | - |
| 1777768803 | 22.78° C | 70% | 1018 hPa | 2.54 mm | - | - | - |
| 1777767603 | 22.78° C | 70% | 1018 hPa | 2.54 mm | - | - | - |
| 1777767004 | 22.78° C | 70% | 1018 hPa | 2.54 mm | - | - | - |
| 1777766403 | 22.78° C | 70% | 1018 hPa | 2.54 mm | - | - | - |
| 1777764003 | 22.78° C | 70% | 1018 hPa | 2.54 mm | - | - | - |
| 1777763403 | 22.78° C | 70% | 1018 hPa | 2.54 mm | - | - | - |
| 1777750804 | 25.56° C | 63% | 1016 hPa | 2.54 mm | - | - | - |
| 1777750204 | 25.56° C | 63% | 1016 hPa | 2.54 mm | - | - | - |
| 1777749004 | 24.44° C | 62% | 1016 hPa | 2.54 mm | - | - | - |
| 1777746606 | 26.11° C | 62% | 1016 hPa | 2.54 mm | - | - | - |
| 1777745403 | 25.56° C | 61% | 1016 hPa | 2.54 mm | - | - | - |
| 1777743604 | 26.11° C | 61% | 1016 hPa | 2.54 mm | - | - | - |
| 1777736404 | 26.11° C | 60% | 1017 hPa | 2.54 mm | - | - | - |
| 1777735203 | 26.67° C | 60% | 1018 hPa | 2.54 mm | - | - | - |
| 1777731003 | 23.33° C | 71% | 1019 hPa | 2.54 mm | - | - | - |
| 1777726803 | 22.22° C | 80% | 1019 hPa | 2.54 mm | - | - | - |
| 1777720803 | 20.56° C | 91% | 1018 hPa | 2.54 mm | - | - | - |
* Rain latest hour (hover to see other rain measurements)
** Current wind speed in m/s (hover to see current wind gust speed)